Latest Weather Observations for Hogan Island

IDT60801

Issued at 10:41 am EST Tuesday 26 May 2020 (issued every 10 minutes, with the page automatically refreshed every 10 minutes)

About weather observations | Map of weather stations | Latest weather observations for TAS | Other Formats
Station Details ID: 200838 Name: HOGAN ISLAND Lat: -39.22 Lon: 146.98 Height: 116.0 m
Data from the previous 72 hours. | See also: Recent months at Hogan Island
Date/Time
EST
Temp
°C
App
Temp
°C
Dew
Point
°C
Rel
Hum
%
Delta-T
°C
Wind Press
QNH
hPa
Press
MSL
hPa
Rain since
9am
mm
Dir  Spd
km/h
Gust
km/h
Spd
kts
Gust
kts
26/10:30am 13.1 - 13.3 - - ENE 30 39 16 21 1026.9 - 0.0
26/10:00am 13.3 - 13.6 - - NE 30 37 16 20 1027.2 - 0.0
26/09:30am 13.0 - 13.6 - - ENE 35 43 19 23 1027.1 - 0.0
26/09:00am 12.5 - 13.2 - - ENE 32 35 17 19 1027.1 1027.2 1.6
26/08:30am 11.9 - 12.6 - - ENE 30 33 16 18 1027.1 - 1.6
26/08:00am 11.3 - 12.0 - - E 33 39 18 21 1027.0 - 1.6
26/07:30am 10.8 - 11.5 - - E 26 32 14 17 1027.0 - 1.6
26/07:07am 11.0 - 11.7 - - E 39 43 21 23 1027.0 - 1.6
26/07:00am 11.1 - 11.8 - - NE 26 39 14 21 1026.9 - 1.4
26/06:30am 10.5 - 11.2 - - E 20 24 11 13 1027.0 - 1.4
26/06:00am 11.0 - 11.7 - - ENE 26 33 14 18 1026.6 1026.7 1.4
26/05:30am 11.1 - 11.8 - - E 30 37 16 20 1026.5 - 1.4
26/05:00am 10.7 - 11.6 - - ENE 26 32 14 17 1026.3 - 1.4
26/04:30am 10.8 - 11.7 - - E 24 30 13 16 1026.3 - 1.0
26/04:00am 10.3 - 11.2 - - ENE 26 33 14 18 1026.5 - 1.0
26/03:30am 10.7 - 11.6 - - NE 41 48 22 26 1026.2 - 1.0
26/03:28am 10.8 - 11.7 - - NE 43 48 23 26 1026.2 - 1.0
26/03:00am 10.6 - 11.5 - - NE 20 30 11 16 1026.6 1026.7 1.0
26/02:30am 10.8 - 11.7 - - NNE 32 37 17 20 1026.7 - 0.6
26/02:00am 10.9 - 11.8 - - ENE 20 26 11 14 1026.9 - 0.6
26/01:30am 10.5 - 11.4 - - N 28 32 15 17 1026.9 - 0.6
26/01:00am 10.4 - 11.3 - - E 33 41 18 22 1027.0 - 0.6
26/12:43am 10.5 - 11.4 - - ENE 32 35 17 19 1027.1 - 0.0
26/12:30am 10.4 - 11.3 - - ESE 37 44 20 24 1027.1 - 0.0
26/12:00am 10.8 - 11.7 - - E 32 33 17 18 1027.2 1027.3 0.0
 
Date/Time
EST
Temp
°C
App
Temp
°C
Dew
Point
°C
Rel
Hum
%
Delta-T
°C
Wind Press
QNH
hPa
Press
MSL
hPa
Rain since
9am
mm
Dir  Spd
km/h
Gust
km/h
Spd
kts
Gust
kts
25/11:30pm 10.5 - 11.4 - - ESE 39 46 21 25 1027.1 - 0.0
25/11:00pm 10.6 - 11.3 - - E 39 50 21 27 1027.2 - 0.0
25/10:30pm 10.4 - 11.1 - - ESE 37 43 20 23 1027.3 - 0.0
25/10:00pm 10.5 - 11.2 - - E 37 43 20 23 1027.6 - 0.0
25/09:30pm 10.7 - 11.4 - - ESE 24 28 13 15 1027.9 - 0.0
25/09:00pm 10.9 - 11.6 - - ESE 28 33 15 18 1027.7 1027.8 0.0
25/08:30pm 10.3 - 10.9 - - ESE 26 32 14 17 1027.6 - 0.0
25/08:00pm 10.6 - 11.2 - - ESE 20 30 11 16 1027.4 - 0.0
25/07:30pm 10.2 - 10.8 - - SE 19 20 10 11 1027.2 - 0.0
25/07:00pm 10.7 - 11.1 - - ESE 20 24 11 13 1027.1 - 0.0
25/06:30pm 10.6 - 11.0 - - ESE 28 33 15 18 1026.8 - 0.0
25/06:00pm 10.4 - 10.8 - - ESE 24 30 13 16 1026.4 1026.5 0.0
25/05:30pm 10.7 - 11.1 - - E 30 33 16 18 1026.0 - 0.0
25/05:00pm 10.6 - 11.0 - - ESE 28 33 15 18 1026.1 - 0.0
25/04:30pm 10.8 - 11.1 - - ESE 28 33 15 18 1026.0 - 0.0
25/04:00pm 11.2 - 11.5 - - ESE 28 32 15 17 1025.9 - 0.0
25/03:30pm 11.6 - 11.8 - - ESE 26 30 14 16 1025.9 - 0.0
25/03:00pm 11.6 - 11.8 - - ESE 26 32 14 17 1025.9 1026.0 0.0
25/02:30pm 12.2 - 12.4 - - ESE 28 32 15 17 1025.8 - 0.0
25/02:00pm 12.3 - 12.5 - - ESE 33 39 18 21 1025.6 - 0.0
25/01:30pm 11.8 - 12.0 - - ESE 30 37 16 20 1025.6 - 0.0
25/01:00pm 12.5 - 12.7 - - ESE 30 35 16 19 1025.8 - 0.0
25/12:30pm 12.1 - 12.3 - - SE 32 39 17 21 1026.0 - 0.0
25/12:00pm 13.4 - - - - SE 28 32 15 17 1026.5 1026.6 0.0
25/11:30am 13.4 9.5 13.4 100 0.0 SE 26 32 14 17 1027.0 - 0.0
25/11:00am 12.9 - - - - ESE 26 30 14 16 1027.1 - 0.0
25/10:30am 12.2 - 12.4 - - SE 28 32 15 17 1027.1 - 0.0
25/10:00am 12.1 - - - - SE 26 30 14 16 1026.9 - 0.0
25/09:30am 11.4 - 11.6 - - SE 24 30 13 16 1026.7 - 0.0
25/09:00am 11.8 - 12.0 - - SE 24 32 13 17 1026.5 1026.6 0.0
25/08:30am 11.0 - - - - SE 28 32 15 17 1026.3 - 0.0
25/08:00am 10.3 - 10.4 - - SE 28 32 15 17 1026.2 - 0.0
25/07:30am 10.6 - - - - SE 30 37 16 20 1026.0 - 0.0
25/07:00am 10.6 - - - - SE 28 35 15 19 1025.8 - 0.0
25/06:30am 10.4 6.0 10.4 100 0.0 SSE 24 33 13 18 1025.5 - 0.0
25/06:00am 10.4 6.0 10.4 100 0.0 SE 24 32 13 17 1025.1 1025.2 0.0
25/05:30am 11.0 6.0 11.0 100 0.0 SE 28 33 15 18 1025.0 - 0.0
25/05:00am 10.9 6.6 10.9 100 0.0 SSE 24 32 13 17 1024.9 - 0.0
25/04:30am 10.6 6.3 10.6 100 0.0 SE 24 30 13 16 1024.9 - 0.0
25/04:00am 10.5 7.1 10.5 100 0.0 SE 19 24 10 13 1024.8 - 0.0
25/03:30am 10.5 7.1 10.5 100 0.0 SE 19 24 10 13 1024.9 - 0.0
25/03:00am 10.7 6.4 10.7 100 0.0 SE 24 28 13 15 1024.9 1025.0 0.0
25/02:30am 10.3 6.6 10.1 99 0.1 SE 20 26 11 14 1024.8 - 0.0
25/02:00am 10.8 6.9 10.8 100 0.0 SE 22 30 12 16 1024.9 - 0.0
25/01:30am 11.0 6.4 11.0 100 0.0 ESE 26 35 14 19 1024.9 - 0.0
25/01:00am 11.0 - 11.1 - - SE 28 35 15 19 1024.9 - 0.0
25/12:30am 11.1 - 11.2 - - ESE 30 33 16 18 1024.9 - 0.0
25/12:00am 10.4 - 10.5 - - ESE 30 35 16 19 1024.6 1024.6 0.0
 
Date/Time
EST
Temp
°C
App
Temp
°C
Dew
Point
°C
Rel
Hum
%
Delta-T
°C
Wind Press
QNH
hPa
Press
MSL
hPa
Rain since
9am
mm
Dir  Spd
km/h
Gust
km/h
Spd
kts
Gust
kts
24/11:30pm 10.4 - 10.5 - - ESE 32 37 17 20 1024.4 - 0.0
24/11:00pm 10.9 5.5 10.9 100 0.0 ESE 30 35 16 19 1024.3 - 0.0
24/10:30pm 11.4 6.1 11.4 100 0.0 SE 30 33 16 18 1024.1 - 0.0
24/10:00pm 11.2 7.4 11.2 100 0.0 S 22 28 12 15 1024.0 - 0.0
24/09:30pm 11.3 7.9 11.3 100 0.0 SSW 20 30 11 16 1023.8 - 0.0
24/09:00pm 10.5 7.1 10.5 100 0.0 S 19 24 10 13 1023.8 1023.8 0.0
24/08:30pm 11.2 7.8 11.2 100 0.0 S 20 26 11 14 1023.8 - 0.0
24/08:00pm 11.5 8.4 11.5 100 0.0 SSW 19 26 10 14 1023.7 - 0.0
24/07:30pm 11.4 8.0 11.4 100 0.0 SSW 20 28 11 15 1023.5 - 0.0
24/07:00pm 11.2 8.4 11.2 100 0.0 S 17 20 9 11 1023.3 - 0.0
24/06:30pm 11.1 7.7 11.1 100 0.0 S 20 28 11 15 1023.2 - 0.0
24/06:00pm 11.2 6.6 11.0 99 0.1 SSE 26 35 14 19 1022.9 1022.9 0.0
24/05:30pm 11.4 6.1 11.4 100 0.0 SSE 30 35 16 19 1022.7 - 0.0
24/05:00pm 11.2 5.5 11.2 100 0.0 SSE 32 35 17 19 1022.5 - 0.0
24/04:30pm 11.4 5.2 11.4 100 0.0 SSE 35 43 19 23 1022.2 - 0.0
24/04:00pm 11.9 6.4 11.9 100 0.0 SSE 32 39 17 21 1022.0 - 0.0
24/03:30pm 11.8 7.0 11.8 100 0.0 SSE 28 35 15 19 1021.7 - 0.0
24/03:00pm 12.4 7.8 12.4 100 0.0 SSE 28 35 15 19 1021.6 1021.6 0.0
24/02:30pm 12.6 8.1 12.6 100 0.0 SSE 28 37 15 20 1021.3 - 0.0
24/02:00pm 12.9 8.5 12.9 100 0.0 SSE 28 35 15 19 1021.2 - 0.0
24/01:30pm 13.1 9.1 13.1 100 0.0 SSE 26 33 14 18 1021.2 - 0.0
24/01:00pm 13.2 9.3 13.2 100 0.0 SSE 26 32 14 17 1021.2 - 0.0
24/12:30pm 13.3 9.0 13.3 100 0.0 SSE 28 33 15 18 1021.3 - 0.0
24/12:00pm 13.1 8.8 13.1 100 0.0 SSE 28 35 15 19 1021.4 1021.4 0.0
24/11:30am 13.3 8.6 13.3 100 0.0 SSE 30 35 16 19 1021.6 - 0.0
24/11:00am 13.5 8.3 13.5 100 0.0 SE 33 41 18 22 1021.6 - 0.0
24/10:30am 12.9 7.7 12.9 100 0.0 SE 32 35 17 19 1021.6 - 0.0
24/10:00am 13.1 9.1 13.1 100 0.0 SE 26 30 14 16 1021.5 - 0.0
24/09:30am 12.7 8.2 12.7 100 0.0 SE 28 33 15 18 1021.2 - 0.0
24/09:00am 12.1 7.8 12.1 100 0.0 SE 26 30 14 16 1021.0 1021.0 0.0
24/08:30am 11.5 7.0 11.5 100 0.0 SE 26 32 14 17 1020.7 - 0.0
24/08:00am 10.9 5.9 10.9 100 0.0 ESE 28 33 15 18 1020.2 - 0.0
24/07:30am 11.2 5.5 11.2 100 0.0 ESE 32 35 17 19 1019.9 - 0.0
24/07:00am 11.4 - 11.6 - - ESE 26 30 14 16 1019.3 - 0.0
24/06:30am 11.1 - 11.2 - - E 26 30 14 16 1018.9 - 0.0
24/06:00am 11.0 - 11.3 - - E 24 28 13 15 1018.6 1018.7 0.0
24/05:30am 11.5 - 11.8 - - SW 15 19 8 10 1018.4 - 0.0
24/05:00am 11.5 - 11.8 - - WSW 13 17 7 9 1018.3 - 0.0
24/04:30am 11.3 - 11.6 - - WSW 17 20 9 11 1018.0 - 0.0
24/04:00am 11.2 - 11.5 - - SW 17 19 9 10 1017.8 - 0.0
24/03:30am 11.1 - 11.2 - - SW 15 20 8 11 1017.7 - 0.0
24/03:00am 11.0 - 11.1 - - WSW 17 19 9 10 1017.7 1017.8 0.0
24/02:30am 10.9 - 11.0 - - WSW 19 22 10 12 1017.8 - 0.0
24/02:00am 11.2 - 11.3 - - WSW 17 20 9 11 1017.7 - 0.0
24/01:30am 11.4 - 11.6 - - WSW 17 19 9 10 1017.6 - 0.0
24/01:00am 11.4 - 11.6 - - WSW 13 17 7 9 1017.6 - 0.0
24/12:30am 11.4 - 11.6 - - WSW 13 17 7 9 1017.6 - 0.0
24/12:00am 11.4 - 11.6 - - WSW 15 17 8 9 1017.6 1017.7 0.0
 
Date/Time
EST
Temp
°C
App
Temp
°C
Dew
Point
°C
Rel
Hum
%
Delta-T
°C
Wind Press
QNH
hPa
Press
MSL
hPa
Rain since
9am
mm
Dir  Spd
km/h
Gust
km/h
Spd
kts
Gust
kts
23/11:30pm 11.3 - 11.5 - - WSW 15 19 8 10 1017.6 - 0.0
23/11:00pm 11.1 - 11.4 - - W 19 20 10 11 1017.5 - 0.0
23/10:30pm 10.4 - 10.5 - - W 13 17 7 9 1017.5 - 0.0
23/10:00pm 10.2 - 10.3 - - W 9 13 5 7 1017.3 - 0.0
23/09:30pm 10.6 - 10.7 - - W 7 11 4 6 1017.2 - 0.0
23/09:00pm 9.9 - 10.2 - - S 7 9 4 5 1016.9 1016.9 0.0
23/08:30pm 9.3 - 9.4 - - S 13 15 7 8 1016.9 - 0.0
23/08:00pm 9.8 - 9.9 - - S 13 17 7 9 1016.5 - 0.0
23/07:30pm 10.5 - 10.6 - - S 15 19 8 10 1016.4 - 0.0
23/07:00pm 11.1 - 11.2 - - S 20 26 11 14 1016.3 - 0.0
23/06:30pm 11.2 - 11.3 - - S 20 28 11 15 1016.0 - 0.0
23/06:00pm 10.5 - 10.8 - - S 20 26 11 14 1015.6 1015.6 0.0
23/05:30pm 10.8 - 11.1 - - SSE 22 26 12 14 1015.0 - 0.0
23/05:00pm 10.8 - 11.1 - - SSW 20 26 11 14 1015.0 - 0.0
23/04:30pm 11.3 - 11.5 - - SW 24 33 13 18 1014.7 - 0.0
23/04:00pm 11.5 - 11.8 - - SW 22 30 12 16 1014.6 - 0.0
23/03:30pm 12.6 - 12.9 - - SW 30 37 16 20 1014.5 - 0.0
23/03:00pm 11.9 - 12.2 - - WSW 33 41 18 22 1014.5 1014.5 0.0
23/02:30pm 12.2 - 12.4 - - SW 32 37 17 20 1014.5 - 0.0
23/02:00pm 12.5 - 12.7 - - WSW 30 35 16 19 1014.5 - 0.0
23/01:30pm 12.4 - 12.6 - - WSW 32 37 17 20 1014.7 - 0.0
23/01:00pm 12.5 - 12.7 - - WSW 24 32 13 17 1015.0 - 0.0
23/12:30pm 12.7 8.6 12.7 100 0.0 SW 26 32 14 17 1015.5 - 0.0
23/12:00pm 12.6 9.2 12.6 100 0.0 SW 22 26 12 14 1016.1 1016.1 0.0
23/11:30am 13.4 10.3 13.4 100 0.0 SW 22 26 12 14 1016.6 - 0.0
23/11:00am 13.0 9.4 13.0 100 0.0 SW 24 30 13 16 1016.9 - 0.0

Other formats

Comma delimited format used in spreadsheet applications
http://www.bom.gov.au/fwo/IDT60801/IDT60801.94949.axf

JavaScript Object Notation format (JSON) in row-major order
http://www.bom.gov.au/fwo/IDT60801/IDT60801.94949.json

Data quality

Most of these data are generated automatically and are frequently updated. Quality checks on data are not normally performed. It is possible for incorrect values to appear. Refer to information at About Latest Weather Observations and please check the disclaimer before using these data.